Bookmark and Share
Track history (hours):
 

Saga Moon

Operator: Indochina Ship Management (UK) Ltd

Last reported at 2009-Sep-11 21:56 UTC. Time now 2014-Apr-16 10:36 UTC.
Position N 54°36' W 004°58'.
Warning: this ship's position is years out of date!

Length 134 m; draft 0.48 m.

Type: Cargo ship. MMSI: 236001000.

NotesDate/timePositionNaut miles runAvg speedWind from/ knotsBaromVisibWave heightAir tempDewpointWater temp
2009-Sep-11 21:56N 54°36' W 004°58'24 0.8
2009-Sep-10 15:21N 54°43' W 005°37'3314.7
2009-Sep-10 13:08N 54°32' W 004°45'913.7
2009-Sep-10 12:29N 54°29' W 004°30'1513.5
2009-Sep-10 11:23N 54°22' W 004°08'4713.0
2009-Sep-10 07:47N 54°02' W 002°55'0 0.1
2009-Sep-10 05:00N 54°02' W 002°55'0 0.1
2009-Sep-10 04:00N 54°02' W 002°55'611.2
2009-Sep-10 03:31N 53°58' W 003°02'1010.4
2009-Sep-10 02:31N 53°56' W 003°19'1813.1
2009-Sep-10 01:09N 54°08' W 003°42'3926.4
2009-Sep-09 23:41N 54°31' W 004°35'1347.2
2009-Sep-09 23:25N 54°25' W 004°16'1517.3
2009-Sep-09 22:31N 54°32' W 004°40'3316.2
2009-Sep-09 20:31N 54°43' W 005°33'1312.7
2009-Sep-09 19:30N 54°38' W 005°53'0 0.0
2009-Sep-09 18:30N 54°38' W 005°53'0 0.0
2009-Sep-09 17:20N 54°38' W 005°53'0 0.0
2009-Sep-09 16:29N 54°38' W 005°53'9 9.1
2009-Sep-09 15:30N 54°43' W 005°41'1514.2
2009-Sep-09 14:28N 54°39' W 005°16'1514.9
2009-Sep-09 13:28N 54°33' W 004°52'1514.7
2009-Sep-09 12:28N 54°29' W 004°29'1514.5
2009-Sep-09 11:28N 54°22' W 004°07'2915.1
2009-Sep-09 09:32N 54°03' W 003°29'1513.5
2009-Sep-09 08:27N 53°57' W 003°06'7 1.5
2009-Sep-09 03:56N 54°01' W 002°57'612.3
2009-Sep-09 03:26N 53°57' W 003°05'1313.7
2009-Sep-09 02:28N 53°54' W 003°26'1413.5
2009-Sep-09 01:28N 54°06' W 003°34'1514.8
2009-Sep-09 00:29N 54°15' W 003°53'1515.3
2009-Sep-08 23:30N 54°24' W 004°14'1817.7
2009-Sep-08 22:29N 54°32' W 004°41'618.3
2009-Sep-08 22:10N 54°34' W 004°51'1216.8
2009-Sep-08 21:28N 54°39' W 005°10'1616.3
2009-Sep-08 20:29N 54°43' W 005°37'1110.8
2009-Sep-08 19:29N 54°38' W 005°53'0 0.0
2009-Sep-08 18:08N 54°38' W 005°53'0 0.0
2009-Sep-08 17:13N 54°38' W 005°53'0 0.1
2009-Sep-08 16:29N 54°38' W 005°53'1211.6
2009-Sep-08 15:29N 54°43' W 005°36'1814.7
2009-Sep-08 14:14N 54°34' W 005°08'1215.6
2009-Sep-08 13:28N 54°33' W 004°48'  
2009-Sep-04 21:15N 54°38' W 005°11'417.0
2009-Sep-04 21:01N 54°40' W 005°17'117.2
2009-Sep-04 20:56N 54°40' W 005°19'  

Dump ship's entire track history

sailing weather and tide predictions

Saga Moon — ZDB19 — position and weather